Flight Track Log - Related Links

Times and Time Zones

All times are in EDT time to prevent confusion due to time zone crossing. See the GJS3618 flight status page for this flight to view local times or setup timezone preferences in your user account.

Time Position Orientation Groundspeed Altitude Reporting Facility
EDT Latitude Longitude Course Direction KTS MPH feet Rate Location/Type
Wed 09:03:17 AM 42.0000 -87.8667 66° East 156 180 2,900  Level Chicago TRACON
Wed 09:05:20 AM 42.0369 -87.6986 73° East 256 295 7,800 2,446 Climbing Chicago Center
Wed 09:06:21 AM 42.0750 -87.6014 62° Northeast 289 333 10,400 2,537 Climbing Chicago Center
Wed 09:07:23 AM 42.1164 -87.4914 63° Northeast 323 372 13,000 1,839 Climbing Chicago Center
Wed 09:08:00 AM 42.2159 -87.2022 66° East  Level FlightAware Approximate
Wed 09:08:25 AM 42.1575 -87.3611 67° East 375 432 14,200  Level Chicago Center
Wed 09:09:27 AM 42.1675 -87.1767 86° East 406 467 17,300 2,323 Climbing Chicago Center
Wed 09:10:29 AM 42.1758 -87.0203 86° East 415 478 19,000 1,902 Climbing Chicago Center
Wed 09:11:30 AM 42.1842 -86.8592 86° East 428 493 21,200 1,805 Climbing Chicago Center
Wed 09:12:32 AM 42.1928 -86.6964 86° East 435 501 22,700 1,597 Climbing Chicago Center
Wed 09:13:34 AM 42.2019 -86.5142 86° East 452 520 24,500 1,366 Climbing Chicago Center
Wed 09:14:35 AM 42.2103 -86.3383 86° East 468 539 25,500 976 Climbing Chicago Center
Wed 09:15:37 AM 42.2189 -86.1542 86° East 488 562 26,500 1,065 Climbing Chicago Center
Wed 09:16:39 AM 42.2289 -85.9642 86° East 502 578 27,700 1,161 Climbing Chicago Center
Wed 09:17:41 AM 42.2364 -85.7736 87° East 507 583 28,900 1,403 Climbing Chicago Center
Wed 09:18:43 AM 42.2458 -85.5828 86° East 509 586 30,600 1,597 Climbing Chicago Center
Wed 09:19:45 AM 42.2539 -85.3950 87° East 501 577 32,200 1,565 Climbing Chicago Center
Wed 09:20:38 AM 42.2614 -85.1961 87° East 485 558 33,600 1,327 Climbing Cleveland Center
Wed 09:21:38 AM 42.2708 -85.0089 86° East 485 558 34,700 1,050 Climbing Cleveland Center
Wed 09:22:38 AM 42.2778 -84.8239 87° East 495 570 35,700 850 Climbing Cleveland Center
Wed 09:23:38 AM 42.2831 -84.6756 87° East 495 570 36,400 650 Climbing Cleveland Center
Wed 09:24:38 AM 42.2883 -84.4653 88° East 500 575 37,000 300 Climbing Cleveland Center
Wed 09:25:38 AM 42.3111 -84.2786 81° East 500 575 37,000  Level Cleveland Center
Wed 09:26:38 AM 42.3378 -84.0919 79° East 500 575 37,000  Level Cleveland Center
Wed 09:27:38 AM 42.3642 -83.9050 79° East 505 581 37,000  Level Cleveland Center
Wed 09:28:38 AM 42.3925 -83.7181 78° East 505 581 37,000  Level Cleveland Center
Wed 09:29:38 AM 42.4058 -83.5303 84° East 505 581 37,000  Level Cleveland Center
Wed 09:30:38 AM 42.4172 -83.3197 86° East 500 575 37,000  Level Cleveland Center
Wed 09:31:38 AM 42.4239 -83.1231 87° East 505 581 37,000  Level Cleveland Center
Wed 09:32:38 AM 42.4300 -82.9350 87° East 505 581 37,000  Level Cleveland Center
Wed 09:33:38 AM 42.4356 -82.7467 88° East 505 581 37,000  Level Cleveland Center
Wed 09:34:38 AM 42.4411 -82.5528 88° East 511 588 37,000  Level Cleveland Center
Wed 09:35:38 AM 42.4486 -82.3589 87° East 511 588 37,000  Level Cleveland Center
Wed 09:36:38 AM 42.4514 -82.1647 89° East 511 588 37,000  Level Cleveland Center
Wed 09:37:38 AM 42.4575 -82.0100 87° East 516 594 37,000  Level Cleveland Center
Wed 09:38:38 AM 42.4603 -81.7792 89° East 511 588 37,000  Level Cleveland Center
Wed 09:39:38 AM 42.4661 -81.6050 87° East 511 588 37,000  Level Cleveland Center
Wed 09:40:38 AM 42.4697 -81.4164 88° East 517 595 37,000  Level Cleveland Center
Wed 09:41:38 AM 42.4731 -81.2250 89° East 509 586 37,000  Level Cleveland Center
Wed 09:42:38 AM 42.4761 -81.0281 89° East 509 586 37,000  Level Cleveland Center
Wed 09:43:38 AM 42.4808 -80.8169 88° East 515 593 37,000  Level Cleveland Center
Wed 09:44:38 AM 42.4831 -80.6225 89° East 510 587 37,000  Level Cleveland Center
Wed 09:45:38 AM 42.4831 -80.4283 90° East 513 590 37,000  Level Cleveland Center
Wed 09:46:38 AM 42.4867 -80.2369 88° East 513 590 37,000  Level Cleveland Center
Wed 09:47:38 AM 42.4881 -80.0397 89° East 519 597 37,000  Level Cleveland Center
Wed 09:48:38 AM 42.4914 -79.8681 88° East 514 592 37,000  Level Cleveland Center
Wed 09:49:38 AM 42.4942 -79.6708 89° East 514 592 37,000  Level Cleveland Center
Wed 09:50:38 AM 42.4925 -79.4739 91° East 514 592 37,000  Level Cleveland Center
Wed 09:51:38 AM 42.4925 -79.2767 90° East 514 592 37,000  Level Cleveland Center
Wed 09:52:38 AM 42.5067 -79.0847 84° East 519 597 37,000  Level Cleveland Center
Wed 09:53:38 AM 42.5186 -78.8844 85° East 519 597 37,000 -600 Level Cleveland Center
Wed 09:54:38 AM 42.5322 -78.6925 84° East 519 597 35,800 -1,289 Descending Cleveland Center
Wed 09:55:39 AM 42.5456 -78.5006 85° East 519 597 34,400 -1,400 Descending Cleveland Center
Wed 09:56:38 AM 42.5564 -78.3028 86° East 519 597 33,000 -1,412 Descending Cleveland Center
Wed 09:57:38 AM 42.5692 -78.1022 85° East 524 603 31,600 -1,400 Descending Cleveland Center
Wed 09:58:38 AM 42.5792 -77.9044 86° East 524 603 30,200 -1,250 Descending Cleveland Center
Wed 09:59:38 AM 42.5928 -77.6867 85° East 524 603 29,100 -600 Descending Cleveland Center
Wed 10:00:38 AM 42.6064 -77.4942 84° East 524 603 29,000 -50 Descending Cleveland Center
Wed 10:01:38 AM 42.6136 -77.3019 87° East 517 595 29,000  Level Cleveland Center
Wed 10:03:13 AM 42.6303 -76.9928 86° East 510 587 29,000  Level Boston Center
Wed 10:04:13 AM 42.6400 -76.7986 86° East 515 593 29,000  Level Boston Center
Wed 10:05:14 AM 42.6478 -76.6439 86° East 515 593 29,000  Level Boston Center
Wed 10:06:14 AM 42.6581 -76.4128 86° East 515 593 29,000  Level Boston Center
Wed 10:07:15 AM 42.6689 -76.2244 85° East 515 593 29,000  Level Boston Center
Wed 10:08:15 AM 42.6772 -76.0300 87° East 515 593 29,000 -915 Level Boston Center
Wed 10:09:13 AM 42.6853 -75.8383 87° East 515 593 27,200 -2,067 Descending Boston Center
Wed 10:10:14 AM 42.6925 -75.6550 87° East 509 586 24,900 -2,281 Descending Boston Center
Wed 10:11:14 AM 42.6975 -75.4800 88° East 479 551 22,600 -2,200 Descending Boston Center
Wed 10:12:14 AM 42.7039 -75.3108 87° East 461 531 20,500 -2,033 Descending Boston Center
Wed 10:13:15 AM 42.7097 -75.1614 87° East 448 516 18,500 -1,785 Descending Boston Center
Wed 10:14:15 AM 42.7133 -74.9975 88° East 436 502 16,900 -1,980 Descending Boston Center
Wed 10:14:55 AM 42.6953 -74.8725 101° East 432 497 15,200 -2,069 Descending Boston Center
Wed 10:15:13 AM 42.6897 -74.8383 102° East 431 496 14,900 -1,714 Descending Boston Center
Wed 10:15:58 AM 42.6672 -74.7189 104° East 417 480 13,400 -1,800 Descending Boston Center
Wed 10:16:13 AM 42.6578 -74.6706 105° East 425 489 13,100 -1,672 Descending Boston Center
Wed 10:16:59 AM 42.6389 -74.5711 104° East 400 460 11,700 -1,377 Descending Boston Center
Wed 10:17:14 AM 42.6331 -74.5397 104° East 401 461 11,700 -1,100 Level Boston Center
Wed 10:17:59 AM 42.6311 -74.4211 91° East 351 404 10,600 -1,400 Descending Boston Center
Wed 10:18:14 AM 42.6317 -74.3900 89° East 373 429 10,300 -1,475 Descending Boston Center
Wed 10:19:00 AM 42.6353 -74.2972 87° East 320 368 9,100 -1,475 Descending Boston Center
Wed 10:19:15 AM 42.6378 -74.2831 77° East 334 384 8,800 -1,800 Descending Boston Center
Wed 10:20:00 AM 42.6414 -74.1817 87° East 311 358 7,300 -1,900 Descending Boston Center
Wed 10:20:15 AM 42.6417 -74.1533 89° East 311 358 6,900 -1,522 Descending Boston Center
Wed 10:21:07 AM 42.6472 -74.0603 85° East 292 336 5,600 -1,500 Descending Boston Center
Wed 10:22:07 AM 42.6422 -73.9642 94° East 241 277 4,100 -1,323 Descending Boston Center
Wed 10:23:14 AM 42.6350 -73.8964 98° East 246 283 2,800 -898 Descending Boston Center
Wed 10:24:14 AM 42.6342 -73.7947 91° East 216 249 2,200 -684 Descending Boston Center
Wed 10:25:08 AM 42.6778 -73.8042 351° North 118 136 1,500 -716 Descending Boston Center
Wed 10:26:03 AM 42.7069 -73.8047 359° North 115 132 900 -655 Descending Boston Center

Login

Don't have an account? Register now (free) for customized features, flight alerts, and more!